sensor_id;sensor_type;location;lat;lon;timestamp;temperature;humidity
8231;DHT22;4156;50.908;6.974;2022-07-23T00:00:34;21.80;99.90
8231;DHT22;4156;50.908;6.974;2022-07-23T00:03:00;22.10;99.90
8231;DHT22;4156;50.908;6.974;2022-07-23T00:05:26;22.10;99.90
8231;DHT22;4156;50.908;6.974;2022-07-23T00:07:51;22.10;99.90
8231;DHT22;4156;50.908;6.974;2022-07-23T00:10:17;22.00;99.90
8231;DHT22;4156;50.908;6.974;2022-07-23T00:12:43;22.00;99.90
8231;DHT22;4156;50.908;6.974;2022-07-23T00:15:09;22.00;99.90
8231;DHT22;4156;50.908;6.974;2022-07-23T00:17:35;21.90;99.90
8231;DHT22;4156;50.908;6.974;2022-07-23T00:20:01;21.90;99.90
8231;DHT22;4156;50.908;6.974;2022-07-23T00:22:27;21.90;99.90
8231;DHT22;4156;50.908;6.974;2022-07-23T00:24:54;21.80;99.90
8231;DHT22;4156;50.908;6.974;2022-07-23T00:27:20;21.80;99.90
8231;DHT22;4156;50.908;6.974;2022-07-23T00:29:46;21.70;99.90
8231;DHT22;4156;50.908;6.974;2022-07-23T00:32:11;21.70;99.90
8231;DHT22;4156;50.908;6.974;2022-07-23T00:34:37;21.70;99.90
8231;DHT22;4156;50.908;6.974;2022-07-23T00:37:02;21.60;99.90
8231;DHT22;4156;50.908;6.974;2022-07-23T00:39:28;21.80;99.90
8231;DHT22;4156;50.908;6.974;2022-07-23T00:41:53;21.60;99.90
8231;DHT22;4156;50.908;6.974;2022-07-23T00:44:23;21.70;99.90
8231;DHT22;4156;50.908;6.974;2022-07-23T00:46:51;21.70;99.90
8231;DHT22;4156;50.908;6.974;2022-07-23T00:49:23;21.80;99.90
8231;DHT22;4156;50.908;6.974;2022-07-23T00:51:49;21.60;99.90
8231;DHT22;4156;50.908;6.974;2022-07-23T00:54:16;21.50;99.90
8231;DHT22;4156;50.908;6.974;2022-07-23T00:56:46;21.40;99.90
8231;DHT22;4156;50.908;6.974;2022-07-23T00:59:12;21.40;99.90
8231;DHT22;4156;50.908;6.974;2022-07-23T01:01:38;21.40;99.90
8231;DHT22;4156;50.908;6.974;2022-07-23T01:04:04;21.30;99.90
8231;DHT22;4156;50.908;6.974;2022-07-23T01:06:34;21.40;99.90
8231;DHT22;4156;50.908;6.974;2022-07-23T01:09:00;21.30;99.90
8231;DHT22;4156;50.908;6.974;2022-07-23T01:11:26;21.30;99.90
8231;DHT22;4156;50.908;6.974;2022-07-23T01:13:51;21.30;99.90
8231;DHT22;4156;50.908;6.974;2022-07-23T01:16:17;21.30;99.90
8231;DHT22;4156;50.908;6.974;2022-07-23T01:18:42;21.20;99.90
8231;DHT22;4156;50.908;6.974;2022-07-23T01:21:10;21.20;99.90
8231;DHT22;4156;50.908;6.974;2022-07-23T01:23:38;21.20;99.90
8231;DHT22;4156;50.908;6.974;2022-07-23T01:26:04;21.20;99.90
8231;DHT22;4156;50.908;6.974;2022-07-23T01:28:29;20.90;99.90
8231;DHT22;4156;50.908;6.974;2022-07-23T01:30:55;21.10;99.90
8231;DHT22;4156;50.908;6.974;2022-07-23T01:33:20;21.10;99.90
8231;DHT22;4156;50.908;6.974;2022-07-23T01:35:46;21.00;99.90
8231;DHT22;4156;50.908;6.974;2022-07-23T01:38:11;21.00;99.90
8231;DHT22;4156;50.908;6.974;2022-07-23T01:40:37;21.00;99.90
8231;DHT22;4156;50.908;6.974;2022-07-23T01:43:02;21.00;99.90
8231;DHT22;4156;50.908;6.974;2022-07-23T01:45:28;21.00;99.90
8231;DHT22;4156;50.908;6.974;2022-07-23T01:47:53;20.90;99.90
8231;DHT22;4156;50.908;6.974;2022-07-23T01:50:19;20.80;99.90
8231;DHT22;4156;50.908;6.974;2022-07-23T01:52:44;20.80;99.90
8231;DHT22;4156;50.908;6.974;2022-07-23T01:55:10;20.80;99.90
8231;DHT22;4156;50.908;6.974;2022-07-23T01:57:35;20.70;99.90
8231;DHT22;4156;50.908;6.974;2022-07-23T02:00:01;20.70;99.90
8231;DHT22;4156;50.908;6.974;2022-07-23T02:02:27;20.70;99.90
8231;DHT22;4156;50.908;6.974;2022-07-23T02:04:53;20.70;99.90
8231;DHT22;4156;50.908;6.974;2022-07-23T02:07:18;20.60;99.90
8231;DHT22;4156;50.908;6.974;2022-07-23T02:09:44;20.60;99.90
8231;DHT22;4156;50.908;6.974;2022-07-23T02:12:09;20.60;99.90
8231;DHT22;4156;50.908;6.974;2022-07-23T02:14:35;20.60;99.90
8231;DHT22;4156;50.908;6.974;2022-07-23T02:17:00;20.60;99.90
8231;DHT22;4156;50.908;6.974;2022-07-23T02:19:26;20.60;99.90
8231;DHT22;4156;50.908;6.974;2022-07-23T02:21:52;20.50;99.90
8231;DHT22;4156;50.908;6.974;2022-07-23T02:24:17;20.50;99.90
8231;DHT22;4156;50.908;6.974;2022-07-23T02:26:43;20.50;99.90
8231;DHT22;4156;50.908;6.974;2022-07-23T02:29:09;20.40;99.90
8231;DHT22;4156;50.908;6.974;2022-07-23T02:31:35;20.40;99.90
8231;DHT22;4156;50.908;6.974;2022-07-23T02:34:01;20.40;99.90
8231;DHT22;4156;50.908;6.974;2022-07-23T02:36:27;20.40;99.90
8231;DHT22;4156;50.908;6.974;2022-07-23T02:38:53;20.40;99.90
8231;DHT22;4156;50.908;6.974;2022-07-23T02:41:18;20.40;99.90
8231;DHT22;4156;50.908;6.974;2022-07-23T02:43:44;20.40;99.90
8231;DHT22;4156;50.908;6.974;2022-07-23T02:46:09;20.30;99.90
8231;DHT22;4156;50.908;6.974;2022-07-23T02:48:35;20.30;99.90
8231;DHT22;4156;50.908;6.974;2022-07-23T02:51:00;20.30;99.90
8231;DHT22;4156;50.908;6.974;2022-07-23T02:53:26;20.40;99.90
8231;DHT22;4156;50.908;6.974;2022-07-23T02:55:52;20.30;99.90
8231;DHT22;4156;50.908;6.974;2022-07-23T02:58:17;20.30;99.90
8231;DHT22;4156;50.908;6.974;2022-07-23T03:00:43;20.20;99.90
8231;DHT22;4156;50.908;6.974;2022-07-23T03:03:09;20.30;99.90
8231;DHT22;4156;50.908;6.974;2022-07-23T03:05:34;20.20;99.90
8231;DHT22;4156;50.908;6.974;2022-07-23T03:08:00;20.20;99.90
8231;DHT22;4156;50.908;6.974;2022-07-23T03:10:26;20.20;99.90
8231;DHT22;4156;50.908;6.974;2022-07-23T03:12:51;20.20;99.90
8231;DHT22;4156;50.908;6.974;2022-07-23T03:15:17;20.20;99.90
8231;DHT22;4156;50.908;6.974;2022-07-23T03:17:43;20.10;99.90
8231;DHT22;4156;50.908;6.974;2022-07-23T03:20:09;20.10;99.90
8231;DHT22;4156;50.908;6.974;2022-07-23T03:22:35;20.10;99.90
8231;DHT22;4156;50.908;6.974;2022-07-23T03:25:00;20.10;99.90
8231;DHT22;4156;50.908;6.974;2022-07-23T03:27:28;20.10;99.90
8231;DHT22;4156;50.908;6.974;2022-07-23T03:29:56;20.10;99.90
8231;DHT22;4156;50.908;6.974;2022-07-23T03:32:22;20.00;99.90
8231;DHT22;4156;50.908;6.974;2022-07-23T03:34:48;20.00;99.90
8231;DHT22;4156;50.908;6.974;2022-07-23T03:37:14;20.00;99.90
8231;DHT22;4156;50.908;6.974;2022-07-23T03:39:40;20.00;99.90
8231;DHT22;4156;50.908;6.974;2022-07-23T03:42:06;20.00;99.90
8231;DHT22;4156;50.908;6.974;2022-07-23T03:44:32;20.00;99.90
8231;DHT22;4156;50.908;6.974;2022-07-23T03:46:58;19.90;99.90
8231;DHT22;4156;50.908;6.974;2022-07-23T03:49:23;19.90;99.90
8231;DHT22;4156;50.908;6.974;2022-07-23T03:51:49;19.90;99.90
8231;DHT22;4156;50.908;6.974;2022-07-23T03:54:14;19.90;99.90
8231;DHT22;4156;50.908;6.974;2022-07-23T03:56:40;19.80;99.90
8231;DHT22;4156;50.908;6.974;2022-07-23T03:59:05;19.80;99.90
8231;DHT22;4156;50.908;6.974;2022-07-23T04:01:31;19.80;99.90
8231;DHT22;4156;50.908;6.974;2022-07-23T04:03:57;19.80;99.90
8231;DHT22;4156;50.908;6.974;2022-07-23T04:06:23;19.80;99.90
8231;DHT22;4156;50.908;6.974;2022-07-23T04:08:48;19.70;99.90
8231;DHT22;4156;50.908;6.974;2022-07-23T04:11:14;19.70;99.90
8231;DHT22;4156;50.908;6.974;2022-07-23T04:13:39;19.80;99.90
8231;DHT22;4156;50.908;6.974;2022-07-23T04:16:05;19.70;99.90
8231;DHT22;4156;50.908;6.974;2022-07-23T04:18:31;19.70;99.90
8231;DHT22;4156;50.908;6.974;2022-07-23T04:20:57;19.70;99.90
8231;DHT22;4156;50.908;6.974;2022-07-23T04:23:23;19.70;99.90
8231;DHT22;4156;50.908;6.974;2022-07-23T04:25:48;19.70;99.90
8231;DHT22;4156;50.908;6.974;2022-07-23T04:28:14;19.70;99.90
8231;DHT22;4156;50.908;6.974;2022-07-23T04:30:40;19.70;99.90
8231;DHT22;4156;50.908;6.974;2022-07-23T04:33:05;19.60;99.90
8231;DHT22;4156;50.908;6.974;2022-07-23T04:35:32;19.70;99.90
8231;DHT22;4156;50.908;6.974;2022-07-23T04:37:58;19.70;99.90
8231;DHT22;4156;50.908;6.974;2022-07-23T04:40:24;19.70;99.90
8231;DHT22;4156;50.908;6.974;2022-07-23T04:42:50;19.70;99.90
8231;DHT22;4156;50.908;6.974;2022-07-23T04:45:15;19.70;99.90
8231;DHT22;4156;50.908;6.974;2022-07-23T04:47:41;19.70;99.90
8231;DHT22;4156;50.908;6.974;2022-07-23T04:50:07;19.70;99.90
8231;DHT22;4156;50.908;6.974;2022-07-23T04:52:32;19.70;99.90
8231;DHT22;4156;50.908;6.974;2022-07-23T04:54:58;19.70;99.90
8231;DHT22;4156;50.908;6.974;2022-07-23T04:57:23;19.70;99.90
8231;DHT22;4156;50.908;6.974;2022-07-23T04:59:49;19.70;99.90
8231;DHT22;4156;50.908;6.974;2022-07-23T05:02:14;19.70;99.90
8231;DHT22;4156;50.908;6.974;2022-07-23T05:04:40;19.80;99.90
8231;DHT22;4156;50.908;6.974;2022-07-23T05:07:05;19.80;99.90
8231;DHT22;4156;50.908;6.974;2022-07-23T05:09:31;19.80;99.90
8231;DHT22;4156;50.908;6.974;2022-07-23T05:11:57;19.80;99.90
8231;DHT22;4156;50.908;6.974;2022-07-23T05:14:22;19.80;99.90
8231;DHT22;4156;50.908;6.974;2022-07-23T05:16:48;19.90;99.90
8231;DHT22;4156;50.908;6.974;2022-07-23T05:19:14;19.90;99.90
8231;DHT22;4156;50.908;6.974;2022-07-23T05:21:39;20.00;99.90
8231;DHT22;4156;50.908;6.974;2022-07-23T05:24:05;20.00;99.90
8231;DHT22;4156;50.908;6.974;2022-07-23T05:26:31;20.10;99.90
8231;DHT22;4156;50.908;6.974;2022-07-23T05:28:56;20.10;99.90
8231;DHT22;4156;50.908;6.974;2022-07-23T05:31:22;20.20;99.90
8231;DHT22;4156;50.908;6.974;2022-07-23T05:33:47;20.10;99.90
8231;DHT22;4156;50.908;6.974;2022-07-23T05:36:13;20.10;99.90
8231;DHT22;4156;50.908;6.974;2022-07-23T05:38:39;20.20;99.90
8231;DHT22;4156;50.908;6.974;2022-07-23T05:41:04;20.10;99.90
8231;DHT22;4156;50.908;6.974;2022-07-23T05:43:30;20.10;99.90
8231;DHT22;4156;50.908;6.974;2022-07-23T05:45:55;20.20;99.90
8231;DHT22;4156;50.908;6.974;2022-07-23T05:48:21;20.20;99.90
8231;DHT22;4156;50.908;6.974;2022-07-23T05:50:47;20.20;99.90
8231;DHT22;4156;50.908;6.974;2022-07-23T05:53:12;20.20;99.90
8231;DHT22;4156;50.908;6.974;2022-07-23T05:55:38;20.20;99.90
8231;DHT22;4156;50.908;6.974;2022-07-23T05:58:04;20.20;99.90
8231;DHT22;4156;50.908;6.974;2022-07-23T06:00:30;20.30;99.90
8231;DHT22;4156;50.908;6.974;2022-07-23T06:02:56;20.30;99.90
8231;DHT22;4156;50.908;6.974;2022-07-23T06:05:22;20.40;99.90
8231;DHT22;4156;50.908;6.974;2022-07-23T06:07:47;20.40;99.90
8231;DHT22;4156;50.908;6.974;2022-07-23T06:10:13;20.50;99.90
8231;DHT22;4156;50.908;6.974;2022-07-23T06:12:39;20.50;99.90
8231;DHT22;4156;50.908;6.974;2022-07-23T06:15:05;20.50;99.90
8231;DHT22;4156;50.908;6.974;2022-07-23T06:17:31;20.60;99.90
8231;DHT22;4156;50.908;6.974;2022-07-23T06:19:56;20.70;99.90
8231;DHT22;4156;50.908;6.974;2022-07-23T06:22:22;20.70;99.90
8231;DHT22;4156;50.908;6.974;2022-07-23T06:24:50;20.80;99.90
8231;DHT22;4156;50.908;6.974;2022-07-23T06:27:17;20.90;99.90
8231;DHT22;4156;50.908;6.974;2022-07-23T06:29:43;21.00;99.90
8231;DHT22;4156;50.908;6.974;2022-07-23T06:32:08;21.10;99.90
8231;DHT22;4156;50.908;6.974;2022-07-23T06:34:34;21.20;99.90
8231;DHT22;4156;50.908;6.974;2022-07-23T06:37:00;21.20;99.90
8231;DHT22;4156;50.908;6.974;2022-07-23T06:39:26;21.30;99.90
8231;DHT22;4156;50.908;6.974;2022-07-23T06:41:52;21.30;99.90
8231;DHT22;4156;50.908;6.974;2022-07-23T06:44:17;21.40;99.90
8231;DHT22;4156;50.908;6.974;2022-07-23T06:46:43;21.40;99.90
8231;DHT22;4156;50.908;6.974;2022-07-23T06:49:08;21.50;99.90
8231;DHT22;4156;50.908;6.974;2022-07-23T06:51:34;21.50;99.90
8231;DHT22;4156;50.908;6.974;2022-07-23T06:54:00;21.60;99.90
8231;DHT22;4156;50.908;6.974;2022-07-23T06:56:25;21.60;99.90
8231;DHT22;4156;50.908;6.974;2022-07-23T06:58:51;21.70;99.90
8231;DHT22;4156;50.908;6.974;2022-07-23T07:01:17;21.70;99.90
8231;DHT22;4156;50.908;6.974;2022-07-23T07:03:42;21.80;99.90
8231;DHT22;4156;50.908;6.974;2022-07-23T07:06:08;21.80;99.90
8231;DHT22;4156;50.908;6.974;2022-07-23T07:08:34;21.80;99.90
8231;DHT22;4156;50.908;6.974;2022-07-23T07:10:59;21.80;99.90
8231;DHT22;4156;50.908;6.974;2022-07-23T07:13:25;21.90;99.90
8231;DHT22;4156;50.908;6.974;2022-07-23T07:15:50;22.00;99.90
8231;DHT22;4156;50.908;6.974;2022-07-23T07:18:16;22.00;99.90
8231;DHT22;4156;50.908;6.974;2022-07-23T07:20:41;22.10;99.90
8231;DHT22;4156;50.908;6.974;2022-07-23T07:23:07;22.10;99.90
8231;DHT22;4156;50.908;6.974;2022-07-23T07:25:33;22.10;99.90
8231;DHT22;4156;50.908;6.974;2022-07-23T07:27:58;22.20;99.90
8231;DHT22;4156;50.908;6.974;2022-07-23T07:30:24;22.50;99.90
8231;DHT22;4156;50.908;6.974;2022-07-23T07:32:49;22.20;99.90
8231;DHT22;4156;50.908;6.974;2022-07-23T07:35:15;22.30;99.90
8231;DHT22;4156;50.908;6.974;2022-07-23T07:37:40;22.40;99.90
8231;DHT22;4156;50.908;6.974;2022-07-23T07:40:07;22.50;99.90
8231;DHT22;4156;50.908;6.974;2022-07-23T07:42:32;22.50;99.90
8231;DHT22;4156;50.908;6.974;2022-07-23T07:44:58;22.60;99.90
8231;DHT22;4156;50.908;6.974;2022-07-23T07:47:24;22.60;99.90
8231;DHT22;4156;50.908;6.974;2022-07-23T07:49:49;22.60;99.90
8231;DHT22;4156;50.908;6.974;2022-07-23T07:52:15;22.60;99.90
8231;DHT22;4156;50.908;6.974;2022-07-23T07:54:40;22.60;99.90
8231;DHT22;4156;50.908;6.974;2022-07-23T07:57:06;22.60;99.90
8231;DHT22;4156;50.908;6.974;2022-07-23T07:59:32;22.60;99.90
8231;DHT22;4156;50.908;6.974;2022-07-23T08:01:57;22.70;99.90
8231;DHT22;4156;50.908;6.974;2022-07-23T08:04:23;22.80;99.90
8231;DHT22;4156;50.908;6.974;2022-07-23T08:06:48;22.80;99.90
8231;DHT22;4156;50.908;6.974;2022-07-23T08:09:14;22.80;99.90
8231;DHT22;4156;50.908;6.974;2022-07-23T08:11:39;22.80;99.90
8231;DHT22;4156;50.908;6.974;2022-07-23T08:14:05;22.90;99.90
8231;DHT22;4156;50.908;6.974;2022-07-23T08:16:30;22.80;99.90
8231;DHT22;4156;50.908;6.974;2022-07-23T08:18:56;22.80;99.90
8231;DHT22;4156;50.908;6.974;2022-07-23T08:21:22;22.80;99.90
8231;DHT22;4156;50.908;6.974;2022-07-23T08:23:47;22.80;99.90
8231;DHT22;4156;50.908;6.974;2022-07-23T08:26:13;22.80;99.90
8231;DHT22;4156;50.908;6.974;2022-07-23T08:28:38;22.80;99.90
8231;DHT22;4156;50.908;6.974;2022-07-23T08:31:04;22.80;99.90
8231;DHT22;4156;50.908;6.974;2022-07-23T08:33:31;22.90;99.90
8231;DHT22;4156;50.908;6.974;2022-07-23T08:35:57;22.80;99.90
8231;DHT22;4156;50.908;6.974;2022-07-23T08:38:22;22.80;99.90
8231;DHT22;4156;50.908;6.974;2022-07-23T08:40:50;22.90;99.90
8231;DHT22;4156;50.908;6.974;2022-07-23T08:43:21;22.90;99.90
8231;DHT22;4156;50.908;6.974;2022-07-23T08:45:49;22.90;99.90
8231;DHT22;4156;50.908;6.974;2022-07-23T08:48:17;22.90;99.90
8231;DHT22;4156;50.908;6.974;2022-07-23T08:50:46;22.90;99.90
8231;DHT22;4156;50.908;6.974;2022-07-23T08:53:13;23.00;99.90
8231;DHT22;4156;50.908;6.974;2022-07-23T08:55:39;23.00;99.90
8231;DHT22;4156;50.908;6.974;2022-07-23T08:58:04;23.00;99.90
8231;DHT22;4156;50.908;6.974;2022-07-23T09:00:31;23.00;99.90
8231;DHT22;4156;50.908;6.974;2022-07-23T09:02:57;23.00;99.90
8231;DHT22;4156;50.908;6.974;2022-07-23T09:05:23;23.10;99.90
8231;DHT22;4156;50.908;6.974;2022-07-23T09:08:16;23.10;99.90
8231;DHT22;4156;50.908;6.974;2022-07-23T09:10:55;23.10;99.90
8231;DHT22;4156;50.908;6.974;2022-07-23T09:13:34;23.10;99.90
8231;DHT22;4156;50.908;6.974;2022-07-23T09:16:01;23.20;99.90
8231;DHT22;4156;50.908;6.974;2022-07-23T09:18:29;23.20;99.90
8231;DHT22;4156;50.908;6.974;2022-07-23T09:21:18;23.20;99.90
8231;DHT22;4156;50.908;6.974;2022-07-23T09:24:00;23.20;99.90
8231;DHT22;4156;50.908;6.974;2022-07-23T09:26:38;23.30;99.90
8231;DHT22;4156;50.908;6.974;2022-07-23T09:31:46;23.30;99.90
8231;DHT22;4156;50.908;6.974;2022-07-23T09:36:43;23.30;99.90
8231;DHT22;4156;50.908;6.974;2022-07-23T09:39:10;23.30;99.90
8231;DHT22;4156;50.908;6.974;2022-07-23T09:41:44;23.30;99.90
8231;DHT22;4156;50.908;6.974;2022-07-23T09:44:30;23.40;99.90
8231;DHT22;4156;50.908;6.974;2022-07-23T09:46:59;23.40;99.90
8231;DHT22;4156;50.908;6.974;2022-07-23T09:49:25;23.40;99.90
8231;DHT22;4156;50.908;6.974;2022-07-23T09:51:53;23.40;99.90
8231;DHT22;4156;50.908;6.974;2022-07-23T09:54:28;23.50;99.90
8231;DHT22;4156;50.908;6.974;2022-07-23T09:56:57;23.50;99.90
8231;DHT22;4156;50.908;6.974;2022-07-23T09:59:26;23.50;99.90
8231;DHT22;4156;50.908;6.974;2022-07-23T10:01:54;23.50;99.90
8231;DHT22;4156;50.908;6.974;2022-07-23T10:04:22;23.70;99.90
8231;DHT22;4156;50.908;6.974;2022-07-23T10:06:52;23.90;99.90
8231;DHT22;4156;50.908;6.974;2022-07-23T10:09:23;23.50;99.90
8231;DHT22;4156;50.908;6.974;2022-07-23T10:11:49;23.60;99.90
8231;DHT22;4156;50.908;6.974;2022-07-23T10:14:16;23.60;99.90
8231;DHT22;4156;50.908;6.974;2022-07-23T10:16:41;23.60;99.90
8231;DHT22;4156;50.908;6.974;2022-07-23T10:19:07;23.70;99.90
8231;DHT22;4156;50.908;6.974;2022-07-23T10:21:46;23.70;99.90
8231;DHT22;4156;50.908;6.974;2022-07-23T10:27:16;23.70;99.90
8231;DHT22;4156;50.908;6.974;2022-07-23T10:29:55;23.70;99.90
8231;DHT22;4156;50.908;6.974;2022-07-23T10:32:44;23.80;99.90
8231;DHT22;4156;50.908;6.974;2022-07-23T10:35:29;23.80;99.90
8231;DHT22;4156;50.908;6.974;2022-07-23T10:40:58;23.80;99.90
8231;DHT22;4156;50.908;6.974;2022-07-23T10:43:25;23.90;99.90
8231;DHT22;4156;50.908;6.974;2022-07-23T10:45:51;23.90;99.90
8231;DHT22;4156;50.908;6.974;2022-07-23T10:48:18;23.80;99.90
8231;DHT22;4156;50.908;6.974;2022-07-23T10:56:17;23.90;99.90
8231;DHT22;4156;50.908;6.974;2022-07-23T10:59:05;24.00;99.90
8231;DHT22;4156;50.908;6.974;2022-07-23T11:01:38;24.00;99.90
8231;DHT22;4156;50.908;6.974;2022-07-23T11:04:05;24.00;99.90
8231;DHT22;4156;50.908;6.974;2022-07-23T11:09:29;24.00;99.90
8231;DHT22;4156;50.908;6.974;2022-07-23T11:17:26;24.00;99.90
8231;DHT22;4156;50.908;6.974;2022-07-23T11:25:10;24.10;99.90
8231;DHT22;4156;50.908;6.974;2022-07-23T11:27:39;24.00;99.90
8231;DHT22;4156;50.908;6.974;2022-07-23T11:30:08;24.10;99.90
8231;DHT22;4156;50.908;6.974;2022-07-23T11:32:40;24.10;99.90
8231;DHT22;4156;50.908;6.974;2022-07-23T11:35:24;24.10;99.90
8231;DHT22;4156;50.908;6.974;2022-07-23T11:37:52;24.20;99.90
8231;DHT22;4156;50.908;6.974;2022-07-23T11:40:20;24.20;99.90
8231;DHT22;4156;50.908;6.974;2022-07-23T11:43:11;24.20;99.90
8231;DHT22;4156;50.908;6.974;2022-07-23T11:45:49;24.20;99.90
8231;DHT22;4156;50.908;6.974;2022-07-23T11:48:22;24.20;99.90
8231;DHT22;4156;50.908;6.974;2022-07-23T11:50:49;24.20;99.90
8231;DHT22;4156;50.908;6.974;2022-07-23T11:53:27;24.30;99.90
8231;DHT22;4156;50.908;6.974;2022-07-23T11:55:53;24.20;99.90
8231;DHT22;4156;50.908;6.974;2022-07-23T11:58:20;24.20;99.90
8231;DHT22;4156;50.908;6.974;2022-07-23T12:00:46;24.30;99.90
8231;DHT22;4156;50.908;6.974;2022-07-23T12:03:12;24.30;99.90
8231;DHT22;4156;50.908;6.974;2022-07-23T12:05:38;24.30;99.90
8231;DHT22;4156;50.908;6.974;2022-07-23T12:08:06;24.30;99.90
8231;DHT22;4156;50.908;6.974;2022-07-23T12:10:42;24.30;99.90
8231;DHT22;4156;50.908;6.974;2022-07-23T12:13:13;24.30;99.90
8231;DHT22;4156;50.908;6.974;2022-07-23T12:15:51;24.40;99.90
8231;DHT22;4156;50.908;6.974;2022-07-23T12:18:20;24.40;99.90
8231;DHT22;4156;50.908;6.974;2022-07-23T12:20:49;24.40;99.90
8231;DHT22;4156;50.908;6.974;2022-07-23T12:23:17;24.40;99.90
8231;DHT22;4156;50.908;6.974;2022-07-23T12:25:45;24.40;99.90
8231;DHT22;4156;50.908;6.974;2022-07-23T12:28:22;24.50;99.90
8231;DHT22;4156;50.908;6.974;2022-07-23T12:30:53;24.50;99.90
8231;DHT22;4156;50.908;6.974;2022-07-23T12:33:29;24.50;99.90
8231;DHT22;4156;50.908;6.974;2022-07-23T12:35:58;24.50;99.90
8231;DHT22;4156;50.908;6.974;2022-07-23T12:38:26;24.50;99.90
8231;DHT22;4156;50.908;6.974;2022-07-23T12:40:57;24.50;99.90
8231;DHT22;4156;50.908;6.974;2022-07-23T12:43:27;24.50;99.90
8231;DHT22;4156;50.908;6.974;2022-07-23T12:48:22;24.60;99.90
8231;DHT22;4156;50.908;6.974;2022-07-23T12:50:54;24.60;99.90
8231;DHT22;4156;50.908;6.974;2022-07-23T12:53:29;24.50;99.90
8231;DHT22;4156;50.908;6.974;2022-07-23T12:56:01;24.60;99.90
8231;DHT22;4156;50.908;6.974;2022-07-23T12:58:32;24.60;99.90
8231;DHT22;4156;50.908;6.974;2022-07-23T13:01:04;24.70;99.90
8231;DHT22;4156;50.908;6.974;2022-07-23T13:03:33;24.60;99.90
8231;DHT22;4156;50.908;6.974;2022-07-23T13:06:00;24.60;99.90
8231;DHT22;4156;50.908;6.974;2022-07-23T13:08:28;24.70;99.90
8231;DHT22;4156;50.908;6.974;2022-07-23T13:10:54;24.60;99.90
8231;DHT22;4156;50.908;6.974;2022-07-23T13:13:25;24.80;99.90
8231;DHT22;4156;50.908;6.974;2022-07-23T13:15:51;24.70;99.90
8231;DHT22;4156;50.908;6.974;2022-07-23T13:18:17;24.80;99.90
8231;DHT22;4156;50.908;6.974;2022-07-23T13:20:45;24.80;99.90
8231;DHT22;4156;50.908;6.974;2022-07-23T13:23:10;24.70;99.90
8231;DHT22;4156;50.908;6.974;2022-07-23T13:25:36;24.80;99.90
8231;DHT22;4156;50.908;6.974;2022-07-23T13:28:02;24.90;99.90
8231;DHT22;4156;50.908;6.974;2022-07-23T13:30:28;24.80;99.90
8231;DHT22;4156;50.908;6.974;2022-07-23T13:32:54;24.80;99.90
8231;DHT22;4156;50.908;6.974;2022-07-23T13:35:19;24.90;99.90
8231;DHT22;4156;50.908;6.974;2022-07-23T13:37:45;25.00;99.90
8231;DHT22;4156;50.908;6.974;2022-07-23T13:40:11;25.00;99.90
8231;DHT22;4156;50.908;6.974;2022-07-23T13:42:37;25.00;99.90
8231;DHT22;4156;50.908;6.974;2022-07-23T13:45:04;25.00;99.90
8231;DHT22;4156;50.908;6.974;2022-07-23T13:47:30;25.00;99.90
8231;DHT22;4156;50.908;6.974;2022-07-23T13:49:55;25.00;99.90
8231;DHT22;4156;50.908;6.974;2022-07-23T13:52:21;25.10;99.90
8231;DHT22;4156;50.908;6.974;2022-07-23T13:54:47;25.00;99.90
8231;DHT22;4156;50.908;6.974;2022-07-23T13:57:12;25.10;99.90
8231;DHT22;4156;50.908;6.974;2022-07-23T13:59:38;25.10;99.90
8231;DHT22;4156;50.908;6.974;2022-07-23T14:02:04;25.00;99.90
8231;DHT22;4156;50.908;6.974;2022-07-23T14:04:30;25.00;99.90
8231;DHT22;4156;50.908;6.974;2022-07-23T14:06:55;25.00;99.90
8231;DHT22;4156;50.908;6.974;2022-07-23T14:09:21;25.10;99.90
8231;DHT22;4156;50.908;6.974;2022-07-23T14:11:47;25.00;99.90
8231;DHT22;4156;50.908;6.974;2022-07-23T14:14:13;25.00;99.90
8231;DHT22;4156;50.908;6.974;2022-07-23T14:16:38;25.00;99.90
8231;DHT22;4156;50.908;6.974;2022-07-23T14:19:04;25.10;99.90
8231;DHT22;4156;50.908;6.974;2022-07-23T14:21:30;25.00;99.90
8231;DHT22;4156;50.908;6.974;2022-07-23T14:23:55;25.00;99.90
8231;DHT22;4156;50.908;6.974;2022-07-23T14:26:21;25.00;99.90
8231;DHT22;4156;50.908;6.974;2022-07-23T14:28:46;25.10;99.90
8231;DHT22;4156;50.908;6.974;2022-07-23T14:31:12;25.10;99.90
8231;DHT22;4156;50.908;6.974;2022-07-23T14:33:37;25.10;99.90
8231;DHT22;4156;50.908;6.974;2022-07-23T14:36:03;25.00;99.90
8231;DHT22;4156;50.908;6.974;2022-07-23T14:38:29;25.10;99.90
8231;DHT22;4156;50.908;6.974;2022-07-23T14:40:56;25.10;99.90
8231;DHT22;4156;50.908;6.974;2022-07-23T14:43:22;25.10;99.90
8231;DHT22;4156;50.908;6.974;2022-07-23T14:45:48;25.10;99.90
8231;DHT22;4156;50.908;6.974;2022-07-23T14:48:13;25.20;99.90
8231;DHT22;4156;50.908;6.974;2022-07-23T14:50:39;25.10;99.90
8231;DHT22;4156;50.908;6.974;2022-07-23T14:53:04;25.20;99.90
8231;DHT22;4156;50.908;6.974;2022-07-23T14:55:33;25.20;99.90
8231;DHT22;4156;50.908;6.974;2022-07-23T14:57:59;25.20;99.90
8231;DHT22;4156;50.908;6.974;2022-07-23T15:00:25;25.20;99.90
8231;DHT22;4156;50.908;6.974;2022-07-23T15:02:52;25.20;99.90
8231;DHT22;4156;50.908;6.974;2022-07-23T15:05:17;25.20;99.90
8231;DHT22;4156;50.908;6.974;2022-07-23T15:07:43;25.20;99.90
8231;DHT22;4156;50.908;6.974;2022-07-23T15:10:09;25.20;99.90
8231;DHT22;4156;50.908;6.974;2022-07-23T15:12:34;25.60;99.90
8231;DHT22;4156;50.908;6.974;2022-07-23T15:15:00;25.30;99.90
8231;DHT22;4156;50.908;6.974;2022-07-23T15:17:25;25.20;99.90
8231;DHT22;4156;50.908;6.974;2022-07-23T15:19:51;25.20;99.90
8231;DHT22;4156;50.908;6.974;2022-07-23T15:22:17;25.30;99.90
8231;DHT22;4156;50.908;6.974;2022-07-23T15:24:43;25.10;99.90
8231;DHT22;4156;50.908;6.974;2022-07-23T15:27:08;25.30;99.90
8231;DHT22;4156;50.908;6.974;2022-07-23T15:29:34;25.30;99.90
8231;DHT22;4156;50.908;6.974;2022-07-23T15:31:59;25.40;99.90
8231;DHT22;4156;50.908;6.974;2022-07-23T15:34:26;25.30;99.90
8231;DHT22;4156;50.908;6.974;2022-07-23T15:36:52;25.30;99.90
8231;DHT22;4156;50.908;6.974;2022-07-23T15:39:18;25.30;99.90
8231;DHT22;4156;50.908;6.974;2022-07-23T15:41:43;25.30;99.90
8231;DHT22;4156;50.908;6.974;2022-07-23T15:44:09;25.40;99.90
8231;DHT22;4156;50.908;6.974;2022-07-23T15:46:34;25.30;99.90
8231;DHT22;4156;50.908;6.974;2022-07-23T15:49:00;25.40;99.90
8231;DHT22;4156;50.908;6.974;2022-07-23T15:51:25;25.40;99.90
8231;DHT22;4156;50.908;6.974;2022-07-23T15:53:51;25.40;99.90
8231;DHT22;4156;50.908;6.974;2022-07-23T15:56:16;25.40;99.90
8231;DHT22;4156;50.908;6.974;2022-07-23T15:58:42;25.40;99.90
8231;DHT22;4156;50.908;6.974;2022-07-23T16:01:08;25.40;99.90
8231;DHT22;4156;50.908;6.974;2022-07-23T16:03:35;25.40;99.90
8231;DHT22;4156;50.908;6.974;2022-07-23T16:06:02;25.40;99.90
8231;DHT22;4156;50.908;6.974;2022-07-23T16:08:28;25.40;99.90
8231;DHT22;4156;50.908;6.974;2022-07-23T16:10:53;25.40;99.90
8231;DHT22;4156;50.908;6.974;2022-07-23T16:13:22;25.40;99.90
8231;DHT22;4156;50.908;6.974;2022-07-23T16:15:48;25.40;99.90
8231;DHT22;4156;50.908;6.974;2022-07-23T16:18:13;25.40;99.90
8231;DHT22;4156;50.908;6.974;2022-07-23T16:20:39;25.40;99.90
8231;DHT22;4156;50.908;6.974;2022-07-23T16:23:05;25.40;99.90
8231;DHT22;4156;50.908;6.974;2022-07-23T16:25:32;25.40;99.90
8231;DHT22;4156;50.908;6.974;2022-07-23T16:27:57;25.50;99.90
8231;DHT22;4156;50.908;6.974;2022-07-23T16:30:23;25.50;99.90
8231;DHT22;4156;50.908;6.974;2022-07-23T16:32:48;25.50;99.90